sensor_id;sensor_type;location;lat;lon;timestamp;P1;durP1;ratioP1;P2;durP2;ratioP2
58928;SDS011;44713;53.378;10.022;2023-04-01T00:00:11;4.57;;;2.90;;
58928;SDS011;44713;53.378;10.022;2023-04-01T00:02:39;5.90;;;2.70;;
58928;SDS011;44713;53.378;10.022;2023-04-01T00:05:05;9.05;;;3.50;;
58928;SDS011;44713;53.378;10.022;2023-04-01T00:07:31;6.78;;;2.80;;
58928;SDS011;44713;53.378;10.022;2023-04-01T00:09:58;9.70;;;3.05;;
58928;SDS011;44713;53.378;10.022;2023-04-01T00:12:23;8.00;;;3.22;;
58928;SDS011;44713;53.378;10.022;2023-04-01T00:14:50;6.45;;;2.92;;
58928;SDS011;44713;53.378;10.022;2023-04-01T00:17:15;8.43;;;3.35;;
58928;SDS011;44713;53.378;10.022;2023-04-01T00:19:41;5.70;;;2.85;;
58928;SDS011;44713;53.378;10.022;2023-04-01T00:22:07;7.63;;;3.08;;
58928;SDS011;44713;53.378;10.022;2023-04-01T00:24:36;8.85;;;3.33;;
58928;SDS011;44713;53.378;10.022;2023-04-01T00:27:02;9.75;;;2.90;;
58928;SDS011;44713;53.378;10.022;2023-04-01T00:29:27;8.75;;;3.45;;
58928;SDS011;44713;53.378;10.022;2023-04-01T00:31:55;7.50;;;3.55;;
58928;SDS011;44713;53.378;10.022;2023-04-01T00:34:21;6.78;;;2.80;;
58928;SDS011;44713;53.378;10.022;2023-04-01T00:36:47;7.95;;;2.97;;
58928;SDS011;44713;53.378;10.022;2023-04-01T00:39:12;7.75;;;2.70;;
58928;SDS011;44713;53.378;10.022;2023-04-01T00:41:38;8.20;;;3.08;;
58928;SDS011;44713;53.378;10.022;2023-04-01T00:46:47;5.20;;;2.70;;
58928;SDS011;44713;53.378;10.022;2023-04-01T00:49:13;5.07;;;2.78;;
58928;SDS011;44713;53.378;10.022;2023-04-01T00:51:39;6.45;;;2.65;;
58928;SDS011;44713;53.378;10.022;2023-04-01T00:54:07;5.82;;;2.63;;
58928;SDS011;44713;53.378;10.022;2023-04-01T00:56:35;8.32;;;2.60;;
58928;SDS011;44713;53.378;10.022;2023-04-01T00:59:06;6.57;;;2.38;;
58928;SDS011;44713;53.378;10.022;2023-04-01T01:01:35;6.07;;;2.47;;
58928;SDS011;44713;53.378;10.022;2023-04-01T01:04:01;5.05;;;2.17;;
58928;SDS011;44713;53.378;10.022;2023-04-01T01:09:24;6.72;;;2.50;;
58928;SDS011;44713;53.378;10.022;2023-04-01T01:12:13;6.10;;;2.58;;
58928;SDS011;44713;53.378;10.022;2023-04-01T01:17:24;6.95;;;3.20;;
58928;SDS011;44713;53.378;10.022;2023-04-01T01:31:50;7.85;;;2.70;;
58928;SDS011;44713;53.378;10.022;2023-04-01T01:37:21;6.47;;;2.72;;
58928;SDS011;44713;53.378;10.022;2023-04-01T01:39:52;9.23;;;3.00;;
58928;SDS011;44713;53.378;10.022;2023-04-01T01:42:21;7.05;;;2.78;;
58928;SDS011;44713;53.378;10.022;2023-04-01T01:44:49;6.30;;;3.03;;
58928;SDS011;44713;53.378;10.022;2023-04-01T01:47:16;6.22;;;3.05;;
58928;SDS011;44713;53.378;10.022;2023-04-01T01:49:45;5.30;;;3.00;;
58928;SDS011;44713;53.378;10.022;2023-04-01T01:52:11;4.53;;;2.90;;
58928;SDS011;44713;53.378;10.022;2023-04-01T01:54:46;4.45;;;2.95;;
58928;SDS011;44713;53.378;10.022;2023-04-01T01:57:17;8.60;;;3.53;;
58928;SDS011;44713;53.378;10.022;2023-04-01T01:59:50;8.05;;;3.40;;
58928;SDS011;44713;53.378;10.022;2023-04-01T02:04:50;4.55;;;3.00;;
58928;SDS011;44713;53.378;10.022;2023-04-01T02:07:21;5.40;;;2.95;;
58928;SDS011;44713;53.378;10.022;2023-04-01T02:12:17;8.75;;;3.10;;
58928;SDS011;44713;53.378;10.022;2023-04-01T02:14:50;6.50;;;3.03;;
58928;SDS011;44713;53.378;10.022;2023-04-01T02:17:20;6.55;;;2.90;;
58928;SDS011;44713;53.378;10.022;2023-04-01T02:19:48;7.45;;;3.38;;
58928;SDS011;44713;53.378;10.022;2023-04-01T02:22:20;5.72;;;3.28;;
58928;SDS011;44713;53.378;10.022;2023-04-01T02:24:49;7.00;;;3.05;;
58928;SDS011;44713;53.378;10.022;2023-04-01T02:27:17;7.45;;;3.08;;
58928;SDS011;44713;53.378;10.022;2023-04-01T02:29:43;4.60;;;3.13;;
58928;SDS011;44713;53.378;10.022;2023-04-01T02:32:09;6.82;;;3.13;;
58928;SDS011;44713;53.378;10.022;2023-04-01T02:34:35;4.57;;;3.05;;
58928;SDS011;44713;53.378;10.022;2023-04-01T02:37:01;7.82;;;3.25;;
58928;SDS011;44713;53.378;10.022;2023-04-01T02:39:27;4.97;;;2.90;;
58928;SDS011;44713;53.378;10.022;2023-04-01T02:41:52;4.07;;;3.15;;
58928;SDS011;44713;53.378;10.022;2023-04-01T02:44:18;7.47;;;3.35;;
58928;SDS011;44713;53.378;10.022;2023-04-01T02:46:43;4.90;;;3.20;;
58928;SDS011;44713;53.378;10.022;2023-04-01T02:49:09;6.18;;;2.90;;
58928;SDS011;44713;53.378;10.022;2023-04-01T02:51:35;8.13;;;3.20;;
58928;SDS011;44713;53.378;10.022;2023-04-01T02:54:00;7.60;;;3.25;;
58928;SDS011;44713;53.378;10.022;2023-04-01T02:56:26;7.68;;;3.53;;
58928;SDS011;44713;53.378;10.022;2023-04-01T02:58:52;6.18;;;3.15;;
58928;SDS011;44713;53.378;10.022;2023-04-01T03:01:18;5.25;;;3.25;;
58928;SDS011;44713;53.378;10.022;2023-04-01T03:03:43;6.53;;;3.20;;
58928;SDS011;44713;53.378;10.022;2023-04-01T03:06:10;8.23;;;3.50;;
58928;SDS011;44713;53.378;10.022;2023-04-01T03:08:38;7.82;;;3.28;;
58928;SDS011;44713;53.378;10.022;2023-04-01T03:11:04;5.18;;;2.65;;
58928;SDS011;44713;53.378;10.022;2023-04-01T03:13:33;8.27;;;3.28;;
58928;SDS011;44713;53.378;10.022;2023-04-01T03:15:58;6.18;;;3.60;;
58928;SDS011;44713;53.378;10.022;2023-04-01T03:18:24;6.65;;;3.15;;
58928;SDS011;44713;53.378;10.022;2023-04-01T03:20:49;8.90;;;3.33;;
58928;SDS011;44713;53.378;10.022;2023-04-01T03:23:15;5.32;;;3.17;;
58928;SDS011;44713;53.378;10.022;2023-04-01T03:25:42;6.50;;;2.75;;
58928;SDS011;44713;53.378;10.022;2023-04-01T03:28:08;9.00;;;3.17;;
58928;SDS011;44713;53.378;10.022;2023-04-01T03:30:33;10.40;;;3.35;;
58928;SDS011;44713;53.378;10.022;2023-04-01T03:32:59;5.45;;;3.08;;
58928;SDS011;44713;53.378;10.022;2023-04-01T03:35:26;9.65;;;3.28;;
58928;SDS011;44713;53.378;10.022;2023-04-01T03:37:51;5.65;;;2.92;;
58928;SDS011;44713;53.378;10.022;2023-04-01T03:40:17;5.97;;;3.53;;
58928;SDS011;44713;53.378;10.022;2023-04-01T03:42:43;6.32;;;3.30;;
58928;SDS011;44713;53.378;10.022;2023-04-01T03:45:08;6.85;;;3.60;;
58928;SDS011;44713;53.378;10.022;2023-04-01T03:47:34;7.38;;;3.17;;
58928;SDS011;44713;53.378;10.022;2023-04-01T03:50:00;7.18;;;3.20;;
58928;SDS011;44713;53.378;10.022;2023-04-01T03:52:26;6.30;;;3.28;;
58928;SDS011;44713;53.378;10.022;2023-04-01T03:54:51;8.07;;;3.60;;
58928;SDS011;44713;53.378;10.022;2023-04-01T03:57:17;10.25;;;3.60;;
58928;SDS011;44713;53.378;10.022;2023-04-01T03:59:43;4.80;;;3.30;;
58928;SDS011;44713;53.378;10.022;2023-04-01T04:02:09;6.50;;;4.45;;
58928;SDS011;44713;53.378;10.022;2023-04-01T04:04:35;7.78;;;3.60;;
58928;SDS011;44713;53.378;10.022;2023-04-01T04:07:01;6.07;;;3.25;;
58928;SDS011;44713;53.378;10.022;2023-04-01T04:09:30;6.00;;;3.70;;
58928;SDS011;44713;53.378;10.022;2023-04-01T04:11:56;7.05;;;3.75;;
58928;SDS011;44713;53.378;10.022;2023-04-01T04:14:22;5.60;;;3.42;;
58928;SDS011;44713;53.378;10.022;2023-04-01T04:16:48;10.13;;;3.63;;
58928;SDS011;44713;53.378;10.022;2023-04-01T04:19:14;10.88;;;4.18;;
58928;SDS011;44713;53.378;10.022;2023-04-01T04:21:40;6.38;;;4.07;;
58928;SDS011;44713;53.378;10.022;2023-04-01T04:24:06;9.63;;;4.32;;
58928;SDS011;44713;53.378;10.022;2023-04-01T04:26:56;10.00;;;4.90;;
58928;SDS011;44713;53.378;10.022;2023-04-01T04:29:21;7.55;;;4.18;;
58928;SDS011;44713;53.378;10.022;2023-04-01T04:31:48;5.70;;;4.78;;
58928;SDS011;44713;53.378;10.022;2023-04-01T04:34:13;9.55;;;5.00;;
58928;SDS011;44713;53.378;10.022;2023-04-01T04:36:38;12.25;;;4.82;;
58928;SDS011;44713;53.378;10.022;2023-04-01T04:39:04;9.85;;;5.47;;
58928;SDS011;44713;53.378;10.022;2023-04-01T04:41:31;11.98;;;5.40;;
58928;SDS011;44713;53.378;10.022;2023-04-01T04:43:57;9.75;;;5.80;;
58928;SDS011;44713;53.378;10.022;2023-04-01T04:46:24;8.55;;;4.88;;
58928;SDS011;44713;53.378;10.022;2023-04-01T04:48:55;7.75;;;5.15;;
58928;SDS011;44713;53.378;10.022;2023-04-01T04:51:21;9.80;;;5.70;;
58928;SDS011;44713;53.378;10.022;2023-04-01T04:53:46;9.35;;;5.55;;
58928;SDS011;44713;53.378;10.022;2023-04-01T04:56:12;8.05;;;5.95;;
58928;SDS011;44713;53.378;10.022;2023-04-01T04:58:48;9.02;;;5.55;;
58928;SDS011;44713;53.378;10.022;2023-04-01T05:01:17;11.82;;;7.07;;
58928;SDS011;44713;53.378;10.022;2023-04-01T05:03:43;10.18;;;6.13;;
58928;SDS011;44713;53.378;10.022;2023-04-01T05:06:11;11.60;;;6.07;;
58928;SDS011;44713;53.378;10.022;2023-04-01T05:08:38;15.45;;;6.47;;
58928;SDS011;44713;53.378;10.022;2023-04-01T05:11:06;10.23;;;5.82;;
58928;SDS011;44713;53.378;10.022;2023-04-01T05:13:37;9.50;;;5.57;;
58928;SDS011;44713;53.378;10.022;2023-04-01T05:16:03;11.48;;;6.25;;
58928;SDS011;44713;53.378;10.022;2023-04-01T05:18:28;7.90;;;6.20;;
58928;SDS011;44713;53.378;10.022;2023-04-01T05:20:54;9.52;;;6.28;;
58928;SDS011;44713;53.378;10.022;2023-04-01T05:23:20;8.98;;;5.70;;
58928;SDS011;44713;53.378;10.022;2023-04-01T05:25:50;15.05;;;6.30;;
58928;SDS011;44713;53.378;10.022;2023-04-01T05:28:18;10.10;;;5.82;;
58928;SDS011;44713;53.378;10.022;2023-04-01T05:30:46;11.15;;;6.28;;
58928;SDS011;44713;53.378;10.022;2023-04-01T05:33:23;8.63;;;5.53;;
58928;SDS011;44713;53.378;10.022;2023-04-01T05:35:48;11.35;;;6.18;;
58928;SDS011;44713;53.378;10.022;2023-04-01T05:38:14;10.75;;;6.05;;
58928;SDS011;44713;53.378;10.022;2023-04-01T05:40:39;11.75;;;6.10;;
58928;SDS011;44713;53.378;10.022;2023-04-01T05:43:05;10.05;;;5.60;;
58928;SDS011;44713;53.378;10.022;2023-04-01T05:45:30;12.63;;;6.55;;
58928;SDS011;44713;53.378;10.022;2023-04-01T05:48:14;12.18;;;5.60;;
58928;SDS011;44713;53.378;10.022;2023-04-01T05:50:40;9.20;;;5.82;;
58928;SDS011;44713;53.378;10.022;2023-04-01T05:53:08;10.30;;;5.97;;
58928;SDS011;44713;53.378;10.022;2023-04-01T05:55:35;11.52;;;5.85;;
58928;SDS011;44713;53.378;10.022;2023-04-01T05:58:01;8.00;;;5.10;;
58928;SDS011;44713;53.378;10.022;2023-04-01T06:00:28;9.18;;;5.20;;
58928;SDS011;44713;53.378;10.022;2023-04-01T06:02:54;6.97;;;4.72;;
58928;SDS011;44713;53.378;10.022;2023-04-01T06:05:21;10.02;;;4.75;;
58928;SDS011;44713;53.378;10.022;2023-04-01T06:07:48;10.35;;;4.93;;
58928;SDS011;44713;53.378;10.022;2023-04-01T06:10:20;8.95;;;4.68;;
58928;SDS011;44713;53.378;10.022;2023-04-01T06:15:25;10.77;;;5.10;;
58928;SDS011;44713;53.378;10.022;2023-04-01T06:18:19;6.53;;;4.88;;
58928;SDS011;44713;53.378;10.022;2023-04-01T06:24:13;7.53;;;4.43;;
58928;SDS011;44713;53.378;10.022;2023-04-01T06:46:10;4.15;;;2.72;;
58928;SDS011;44713;53.378;10.022;2023-04-01T06:49:17;2.22;;;1.33;;
58928;SDS011;44713;53.378;10.022;2023-04-01T06:52:33;1.95;;;1.35;;
58928;SDS011;44713;53.378;10.022;2023-04-01T06:58:27;0.73;;;0.70;;
58928;SDS011;44713;53.378;10.022;2023-04-01T07:00:58;1.00;;;0.60;;
58928;SDS011;44713;53.378;10.022;2023-04-01T07:03:32;0.68;;;0.60;;
58928;SDS011;44713;53.378;10.022;2023-04-01T07:06:08;1.60;;;0.57;;
58928;SDS011;44713;53.378;10.022;2023-04-01T07:08:47;2.22;;;0.80;;
58928;SDS011;44713;53.378;10.022;2023-04-01T07:11:19;0.75;;;0.75;;
58928;SDS011;44713;53.378;10.022;2023-04-01T07:14:18;1.02;;;1.00;;
58928;SDS011;44713;53.378;10.022;2023-04-01T07:17:06;1.10;;;1.00;;
58928;SDS011;44713;53.378;10.022;2023-04-01T07:19:45;1.50;;;1.40;;
58928;SDS011;44713;53.378;10.022;2023-04-01T07:22:25;2.72;;;1.63;;
58928;SDS011;44713;53.378;10.022;2023-04-01T07:25:24;2.90;;;1.70;;
58928;SDS011;44713;53.378;10.022;2023-04-01T07:28:12;1.50;;;1.40;;
58928;SDS011;44713;53.378;10.022;2023-04-01T07:36:32;1.30;;;1.20;;
58928;SDS011;44713;53.378;10.022;2023-04-01T07:39:12;1.27;;;0.90;;
58928;SDS011;44713;53.378;10.022;2023-04-01T07:52:36;1.25;;;0.90;;
58928;SDS011;44713;53.378;10.022;2023-04-01T07:55:26;1.15;;;0.80;;
58928;SDS011;44713;53.378;10.022;2023-04-01T08:00:48;1.67;;;0.50;;
58928;SDS011;44713;53.378;10.022;2023-04-01T08:06:33;0.60;;;0.60;;
58928;SDS011;44713;53.378;10.022;2023-04-01T08:09:29;1.48;;;0.57;;
58928;SDS011;44713;53.378;10.022;2023-04-01T08:15:32;0.73;;;0.50;;
58928;SDS011;44713;53.378;10.022;2023-04-01T08:20:45;0.77;;;0.70;;
58928;SDS011;44713;53.378;10.022;2023-04-01T08:23:14;3.05;;;0.70;;
58928;SDS011;44713;53.378;10.022;2023-04-01T08:25:44;0.90;;;0.80;;
58928;SDS011;44713;53.378;10.022;2023-04-01T08:28:29;0.73;;;0.63;;
58928;SDS011;44713;53.378;10.022;2023-04-01T08:31:09;0.57;;;0.50;;
58928;SDS011;44713;53.378;10.022;2023-04-01T08:33:42;1.60;;;0.68;;
58928;SDS011;44713;53.378;10.022;2023-04-01T08:36:17;2.22;;;0.45;;
58928;SDS011;44713;53.378;10.022;2023-04-01T08:39:01;0.70;;;0.50;;
58928;SDS011;44713;53.378;10.022;2023-04-01T08:56:50;0.60;;;0.60;;
58928;SDS011;44713;53.378;10.022;2023-04-01T08:59:31;0.65;;;0.57;;
58928;SDS011;44713;53.378;10.022;2023-04-01T09:05:42;2.10;;;0.70;;
58928;SDS011;44713;53.378;10.022;2023-04-01T09:08:28;1.27;;;0.82;;
58928;SDS011;44713;53.378;10.022;2023-04-01T09:22:48;2.13;;;1.55;;
58928;SDS011;44713;53.378;10.022;2023-04-01T09:27:55;1.65;;;1.02;;
58928;SDS011;44713;53.378;10.022;2023-04-01T09:33:54;1.50;;;0.80;;
58928;SDS011;44713;53.378;10.022;2023-04-01T09:39:54;1.15;;;0.60;;
58928;SDS011;44713;53.378;10.022;2023-04-01T09:42:45;1.05;;;0.90;;
58928;SDS011;44713;53.378;10.022;2023-04-01T09:45:37;1.30;;;0.82;;
58928;SDS011;44713;53.378;10.022;2023-04-01T10:03:22;0.80;;;0.60;;
58928;SDS011;44713;53.378;10.022;2023-04-01T10:12:15;1.08;;;0.73;;
58928;SDS011;44713;53.378;10.022;2023-04-01T10:15:40;1.20;;;0.70;;
58928;SDS011;44713;53.378;10.022;2023-04-01T10:21:07;0.90;;;0.52;;
58928;SDS011;44713;53.378;10.022;2023-04-01T10:36:01;0.60;;;0.50;;
58928;SDS011;44713;53.378;10.022;2023-04-01T10:47:50;1.20;;;0.80;;
58928;SDS011;44713;53.378;10.022;2023-04-01T10:56:36;0.85;;;0.70;;
58928;SDS011;44713;53.378;10.022;2023-04-01T10:59:42;0.98;;;0.80;;
58928;SDS011;44713;53.378;10.022;2023-04-01T11:06:21;0.88;;;0.63;;
58928;SDS011;44713;53.378;10.022;2023-04-01T11:17:24;1.92;;;1.08;;
58928;SDS011;44713;53.378;10.022;2023-04-01T11:31:11;1.58;;;0.55;;
58928;SDS011;44713;53.378;10.022;2023-04-01T11:33:57;0.52;;;0.50;;
58928;SDS011;44713;53.378;10.022;2023-04-01T11:36:44;0.43;;;0.43;;
58928;SDS011;44713;53.378;10.022;2023-04-01T11:39:33;1.20;;;0.40;;
58928;SDS011;44713;53.378;10.022;2023-04-01T11:42:49;0.50;;;0.40;;
58928;SDS011;44713;53.378;10.022;2023-04-01T11:46:08;0.60;;;0.50;;
58928;SDS011;44713;53.378;10.022;2023-04-01T11:51:15;0.70;;;0.40;;
58928;SDS011;44713;53.378;10.022;2023-04-01T11:54:00;0.50;;;0.38;;
58928;SDS011;44713;53.378;10.022;2023-04-01T11:57:23;1.15;;;0.75;;
58928;SDS011;44713;53.378;10.022;2023-04-01T12:04:58;1.50;;;0.50;;
58928;SDS011;44713;53.378;10.022;2023-04-01T12:19:48;1.20;;;0.80;;
58928;SDS011;44713;53.378;10.022;2023-04-01T12:22:43;2.58;;;1.45;;
58928;SDS011;44713;53.378;10.022;2023-04-01T12:25:35;1.95;;;1.30;;
58928;SDS011;44713;53.378;10.022;2023-04-01T12:31:29;1.42;;;1.30;;
58928;SDS011;44713;53.378;10.022;2023-04-01T12:37:14;3.30;;;1.92;;
58928;SDS011;44713;53.378;10.022;2023-04-01T12:40:17;3.05;;;2.15;;
58928;SDS011;44713;53.378;10.022;2023-04-01T13:02:34;5.10;;;2.83;;
58928;SDS011;44713;53.378;10.022;2023-04-01T13:05:22;4.00;;;3.03;;
58928;SDS011;44713;53.378;10.022;2023-04-01T13:08:00;6.30;;;3.10;;
58928;SDS011;44713;53.378;10.022;2023-04-01T13:10:38;6.93;;;2.80;;
58928;SDS011;44713;53.378;10.022;2023-04-01T13:21:27;5.97;;;2.60;;
58928;SDS011;44713;53.378;10.022;2023-04-01T13:30:04;4.45;;;2.83;;
58928;SDS011;44713;53.378;10.022;2023-04-01T13:35:41;4.30;;;2.83;;
58928;SDS011;44713;53.378;10.022;2023-04-01T13:43:39;3.45;;;2.60;;
58928;SDS011;44713;53.378;10.022;2023-04-01T13:54:23;5.85;;;3.05;;
58928;SDS011;44713;53.378;10.022;2023-04-01T14:02:58;3.70;;;2.67;;
58928;SDS011;44713;53.378;10.022;2023-04-01T14:08:19;4.75;;;2.35;;
58928;SDS011;44713;53.378;10.022;2023-04-01T14:10:59;5.90;;;2.20;;
58928;SDS011;44713;53.378;10.022;2023-04-01T14:32:52;6.60;;;2.45;;
58928;SDS011;44713;53.378;10.022;2023-04-01T14:35:49;3.22;;;1.75;;
58928;SDS011;44713;53.378;10.022;2023-04-01T14:38:26;3.97;;;2.05;;
58928;SDS011;44713;53.378;10.022;2023-04-01T14:41:05;2.75;;;1.70;;
58928;SDS011;44713;53.378;10.022;2023-04-01T14:43:54;2.55;;;1.75;;
58928;SDS011;44713;53.378;10.022;2023-04-01T14:49:22;2.78;;;2.45;;
58928;SDS011;44713;53.378;10.022;2023-04-01T14:51:55;3.88;;;1.80;;
58928;SDS011;44713;53.378;10.022;2023-04-01T14:54:32;3.40;;;2.03;;
58928;SDS011;44713;53.378;10.022;2023-04-01T14:57:05;3.67;;;2.17;;
58928;SDS011;44713;53.378;10.022;2023-04-01T14:59:39;4.68;;;2.35;;
58928;SDS011;44713;53.378;10.022;2023-04-01T15:05:23;3.72;;;2.30;;
58928;SDS011;44713;53.378;10.022;2023-04-01T15:08:10;5.22;;;2.72;;
58928;SDS011;44713;53.378;10.022;2023-04-01T15:10:54;7.45;;;3.50;;
58928;SDS011;44713;53.378;10.022;2023-04-01T15:16:25;4.25;;;2.90;;
58928;SDS011;44713;53.378;10.022;2023-04-01T15:21:46;10.45;;;2.90;;
58928;SDS011;44713;53.378;10.022;2023-04-01T15:24:26;5.55;;;3.10;;
58928;SDS011;44713;53.378;10.022;2023-04-01T15:37:33;6.93;;;3.28;;
58928;SDS011;44713;53.378;10.022;2023-04-01T15:42:46;5.78;;;3.55;;
58928;SDS011;44713;53.378;10.022;2023-04-01T15:48:11;7.13;;;3.40;;
58928;SDS011;44713;53.378;10.022;2023-04-01T15:50:53;6.07;;;3.55;;
58928;SDS011;44713;53.378;10.022;2023-04-01T15:53:27;6.05;;;3.38;;
58928;SDS011;44713;53.378;10.022;2023-04-01T15:59:09;6.70;;;3.70;;
58928;SDS011;44713;53.378;10.022;2023-04-01T16:04:53;10.30;;;4.18;;
58928;SDS011;44713;53.378;10.022;2023-04-01T16:24:12;7.15;;;4.35;;
58928;SDS011;44713;53.378;10.022;2023-04-01T16:27:04;6.28;;;3.60;;
58928;SDS011;44713;53.378;10.022;2023-04-01T16:29:56;6.10;;;3.30;;
58928;SDS011;44713;53.378;10.022;2023-04-01T16:32:51;6.60;;;3.40;;
58928;SDS011;44713;53.378;10.022;2023-04-01T16:35:28;8.13;;;3.50;;
58928;SDS011;44713;53.378;10.022;2023-04-01T16:38:15;8.25;;;3.55;;
58928;SDS011;44713;53.378;10.022;2023-04-01T16:43:28;7.75;;;3.60;;
58928;SDS011;44713;53.378;10.022;2023-04-01T16:46:14;9.77;;;3.45;;
58928;SDS011;44713;53.378;10.022;2023-04-01T16:51:26;8.48;;;3.97;;
58928;SDS011;44713;53.378;10.022;2023-04-01T16:56:30;10.27;;;3.88;;
58928;SDS011;44713;53.378;10.022;2023-04-01T16:59:07;8.77;;;3.88;;
58928;SDS011;44713;53.378;10.022;2023-04-01T17:04:17;9.15;;;4.22;;
58928;SDS011;44713;53.378;10.022;2023-04-01T17:23:12;8.50;;;4.18;;
58928;SDS011;44713;53.378;10.022;2023-04-01T17:25:41;8.07;;;3.83;;
58928;SDS011;44713;53.378;10.022;2023-04-01T17:28:29;8.43;;;3.67;;
58928;SDS011;44713;53.378;10.022;2023-04-01T17:31:17;12.13;;;3.90;;
58928;SDS011;44713;53.378;10.022;2023-04-01T17:34:00;7.28;;;3.80;;
58928;SDS011;44713;53.378;10.022;2023-04-01T17:36:56;10.75;;;3.78;;
58928;SDS011;44713;53.378;10.022;2023-04-01T17:39:49;6.45;;;3.75;;
58928;SDS011;44713;53.378;10.022;2023-04-01T17:45:32;6.13;;;3.22;;
58928;SDS011;44713;53.378;10.022;2023-04-01T17:54:10;12.20;;;6.00;;
58928;SDS011;44713;53.378;10.022;2023-04-01T17:59:38;11.60;;;3.88;;
58928;SDS011;44713;53.378;10.022;2023-04-01T18:04:40;9.85;;;4.47;;
58928;SDS011;44713;53.378;10.022;2023-04-01T18:07:41;11.60;;;4.40;;
58928;SDS011;44713;53.378;10.022;2023-04-01T18:10:19;12.43;;;4.78;;
58928;SDS011;44713;53.378;10.022;2023-04-01T18:13:06;9.52;;;4.80;;
58928;SDS011;44713;53.378;10.022;2023-04-01T18:21:50;11.18;;;4.40;;
58928;SDS011;44713;53.378;10.022;2023-04-01T18:24:23;8.98;;;4.35;;
58928;SDS011;44713;53.378;10.022;2023-04-01T18:29:55;11.55;;;3.90;;
58928;SDS011;44713;53.378;10.022;2023-04-01T18:36:13;8.00;;;3.85;;
58928;SDS011;44713;53.378;10.022;2023-04-01T18:38:48;8.07;;;3.90;;
58928;SDS011;44713;53.378;10.022;2023-04-01T18:47:19;7.65;;;3.22;;
58928;SDS011;44713;53.378;10.022;2023-04-01T18:50:02;4.75;;;3.63;;
58928;SDS011;44713;53.378;10.022;2023-04-01T18:52:42;8.88;;;4.10;;
58928;SDS011;44713;53.378;10.022;2023-04-01T19:11:46;6.90;;;3.72;;
58928;SDS011;44713;53.378;10.022;2023-04-01T19:14:23;9.95;;;4.57;;
58928;SDS011;44713;53.378;10.022;2023-04-01T19:17:34;5.57;;;3.55;;
58928;SDS011;44713;53.378;10.022;2023-04-01T19:33:52;6.18;;;3.35;;
58928;SDS011;44713;53.378;10.022;2023-04-01T19:36:29;9.50;;;4.10;;
58928;SDS011;44713;53.378;10.022;2023-04-01T19:39:14;10.88;;;3.78;;
58928;SDS011;44713;53.378;10.022;2023-04-01T19:47:39;7.25;;;3.15;;
58928;SDS011;44713;53.378;10.022;2023-04-01T19:52:54;7.45;;;3.05;;
58928;SDS011;44713;53.378;10.022;2023-04-01T19:58:06;4.93;;;2.70;;
58928;SDS011;44713;53.378;10.022;2023-04-01T20:14:23;9.50;;;3.20;;
58928;SDS011;44713;53.378;10.022;2023-04-01T20:24:58;4.55;;;2.60;;
58928;SDS011;44713;53.378;10.022;2023-04-01T20:27:35;6.07;;;3.00;;
58928;SDS011;44713;53.378;10.022;2023-04-01T20:30:19;5.38;;;2.72;;
58928;SDS011;44713;53.378;10.022;2023-04-01T20:39:04;8.52;;;2.65;;
58928;SDS011;44713;53.378;10.022;2023-04-01T20:44:53;8.32;;;2.70;;
58928;SDS011;44713;53.378;10.022;2023-04-01T20:50:19;5.78;;;2.60;;
58928;SDS011;44713;53.378;10.022;2023-04-01T20:53:04;7.65;;;2.83;;
58928;SDS011;44713;53.378;10.022;2023-04-01T21:01:29;4.78;;;2.40;;
58928;SDS011;44713;53.378;10.022;2023-04-01T21:14:51;9.27;;;3.08;;
58928;SDS011;44713;53.378;10.022;2023-04-01T21:20:30;5.55;;;3.05;;
58928;SDS011;44713;53.378;10.022;2023-04-01T21:36:20;7.85;;;3.10;;
58928;SDS011;44713;53.378;10.022;2023-04-01T21:53:11;4.82;;;2.15;;
58928;SDS011;44713;53.378;10.022;2023-04-01T22:04:20;4.93;;;1.40;;
58928;SDS011;44713;53.378;10.022;2023-04-01T22:09:37;4.40;;;1.50;;
58928;SDS011;44713;53.378;10.022;2023-04-01T22:12:09;4.50;;;1.52;;
58928;SDS011;44713;53.378;10.022;2023-04-01T22:14:48;3.03;;;1.50;;
58928;SDS011;44713;53.378;10.022;2023-04-01T22:17:40;5.97;;;1.70;;
58928;SDS011;44713;53.378;10.022;2023-04-01T22:20:16;4.15;;;1.73;;
58928;SDS011;44713;53.378;10.022;2023-04-01T22:28:16;3.42;;;1.70;;
58928;SDS011;44713;53.378;10.022;2023-04-01T22:30:50;5.65;;;1.73;;
58928;SDS011;44713;53.378;10.022;2023-04-01T22:36:34;4.93;;;1.60;;
58928;SDS011;44713;53.378;10.022;2023-04-01T22:39:11;6.85;;;1.52;;
58928;SDS011;44713;53.378;10.022;2023-04-01T22:42:00;7.32;;;1.80;;
58928;SDS011;44713;53.378;10.022;2023-04-01T22:44:51;4.47;;;1.27;;
58928;SDS011;44713;53.378;10.022;2023-04-01T22:47:30;3.80;;;1.27;;
58928;SDS011;44713;53.378;10.022;2023-04-01T22:50:19;7.28;;;1.58;;
58928;SDS011;44713;53.378;10.022;2023-04-01T22:52:47;7.53;;;1.70;;
58928;SDS011;44713;53.378;10.022;2023-04-01T22:55:24;6.78;;;1.15;;
58928;SDS011;44713;53.378;10.022;2023-04-01T22:58:05;8.00;;;1.73;;
58928;SDS011;44713;53.378;10.022;2023-04-01T23:00:36;4.25;;;1.48;;
58928;SDS011;44713;53.378;10.022;2023-04-01T23:05:50;5.30;;;1.60;;
58928;SDS011;44713;53.378;10.022;2023-04-01T23:11:20;3.45;;;1.60;;
58928;SDS011;44713;53.378;10.022;2023-04-01T23:13:52;4.47;;;1.23;;
58928;SDS011;44713;53.378;10.022;2023-04-01T23:16:29;6.70;;;1.60;;
58928;SDS011;44713;53.378;10.022;2023-04-01T23:21:52;2.50;;;1.08;;
58928;SDS011;44713;53.378;10.022;2023-04-01T23:24:26;6.35;;;1.75;;
58928;SDS011;44713;53.378;10.022;2023-04-01T23:26:56;7.30;;;1.25;;
58928;SDS011;44713;53.378;10.022;2023-04-01T23:29:26;7.60;;;2.08;;
58928;SDS011;44713;53.378;10.022;2023-04-01T23:32:05;5.80;;;1.23;;
58928;SDS011;44713;53.378;10.022;2023-04-01T23:34:39;5.97;;;1.63;;
58928;SDS011;44713;53.378;10.022;2023-04-01T23:37:15;4.18;;;1.60;;
58928;SDS011;44713;53.378;10.022;2023-04-01T23:40:16;3.03;;;1.15;;
58928;SDS011;44713;53.378;10.022;2023-04-01T23:42:40;8.52;;;1.45;;
58928;SDS011;44713;53.378;10.022;2023-04-01T23:45:13;4.00;;;1.20;;
58928;SDS011;44713;53.378;10.022;2023-04-01T23:47:47;5.60;;;1.70;;
58928;SDS011;44713;53.378;10.022;2023-04-01T23:50:18;6.20;;;1.70;;
58928;SDS011;44713;53.378;10.022;2023-04-01T23:52:48;3.08;;;1.10;;
58928;SDS011;44713;53.378;10.022;2023-04-01T23:55:17;9.40;;;1.38;;
